sensor_id;sensor_type;location;lat;lon;timestamp;P1;durP1;ratioP1;P2;durP2;ratioP2
45650;SDS011;31365;48.858;8.530;2023-04-24T00:00:34;1.40;;;0.60;;
45650;SDS011;31365;48.858;8.530;2023-04-24T00:03:04;1.30;;;0.70;;
45650;SDS011;31365;48.858;8.530;2023-04-24T00:05:35;3.23;;;1.07;;
45650;SDS011;31365;48.858;8.530;2023-04-24T00:08:04;1.13;;;0.63;;
45650;SDS011;31365;48.858;8.530;2023-04-24T00:10:32;1.03;;;0.50;;
45650;SDS011;31365;48.858;8.530;2023-04-24T00:13:00;2.37;;;0.60;;
45650;SDS011;31365;48.858;8.530;2023-04-24T00:15:29;5.43;;;1.00;;
45650;SDS011;31365;48.858;8.530;2023-04-24T00:17:58;1.30;;;0.87;;
45650;SDS011;31365;48.858;8.530;2023-04-24T00:20:27;2.20;;;0.50;;
45650;SDS011;31365;48.858;8.530;2023-04-24T00:22:57;2.63;;;0.83;;
45650;SDS011;31365;48.858;8.530;2023-04-24T00:25:25;3.97;;;1.00;;
45650;SDS011;31365;48.858;8.530;2023-04-24T00:27:54;2.30;;;0.63;;
45650;SDS011;31365;48.858;8.530;2023-04-24T00:30:22;0.70;;;0.50;;
45650;SDS011;31365;48.858;8.530;2023-04-24T00:32:50;2.30;;;0.80;;
45650;SDS011;31365;48.858;8.530;2023-04-24T00:35:19;1.13;;;0.50;;
45650;SDS011;31365;48.858;8.530;2023-04-24T00:37:47;0.83;;;0.70;;
45650;SDS011;31365;48.858;8.530;2023-04-24T00:40:17;1.87;;;0.77;;
45650;SDS011;31365;48.858;8.530;2023-04-24T00:42:45;0.97;;;0.57;;
45650;SDS011;31365;48.858;8.530;2023-04-24T00:45:14;1.80;;;0.73;;
45650;SDS011;31365;48.858;8.530;2023-04-24T00:47:42;3.70;;;0.80;;
45650;SDS011;31365;48.858;8.530;2023-04-24T00:50:14;1.33;;;0.70;;
45650;SDS011;31365;48.858;8.530;2023-04-24T00:52:43;1.40;;;0.60;;
45650;SDS011;31365;48.858;8.530;2023-04-24T00:55:12;1.80;;;0.63;;
45650;SDS011;31365;48.858;8.530;2023-04-24T00:57:41;1.93;;;0.50;;
45650;SDS011;31365;48.858;8.530;2023-04-24T01:00:10;0.77;;;0.50;;
45650;SDS011;31365;48.858;8.530;2023-04-24T01:02:41;1.70;;;0.80;;
45650;SDS011;31365;48.858;8.530;2023-04-24T01:05:13;1.40;;;0.60;;
45650;SDS011;31365;48.858;8.530;2023-04-24T01:07:43;2.13;;;0.73;;
45650;SDS011;31365;48.858;8.530;2023-04-24T01:10:15;1.53;;;0.50;;
45650;SDS011;31365;48.858;8.530;2023-04-24T01:12:48;1.80;;;0.70;;
45650;SDS011;31365;48.858;8.530;2023-04-24T01:15:16;1.43;;;0.53;;
45650;SDS011;31365;48.858;8.530;2023-04-24T01:17:45;2.30;;;0.63;;
45650;SDS011;31365;48.858;8.530;2023-04-24T01:20:13;1.47;;;0.70;;
45650;SDS011;31365;48.858;8.530;2023-04-24T01:22:44;0.67;;;0.53;;
45650;SDS011;31365;48.858;8.530;2023-04-24T01:25:14;2.47;;;0.47;;
45650;SDS011;31365;48.858;8.530;2023-04-24T01:27:42;1.23;;;0.73;;
45650;SDS011;31365;48.858;8.530;2023-04-24T01:30:11;0.20;;;0.20;;
45650;SDS011;31365;48.858;8.530;2023-04-24T01:32:40;0.80;;;0.40;;
45650;SDS011;31365;48.858;8.530;2023-04-24T01:35:11;2.23;;;0.70;;
45650;SDS011;31365;48.858;8.530;2023-04-24T01:37:39;2.03;;;0.83;;
45650;SDS011;31365;48.858;8.530;2023-04-24T01:40:09;1.33;;;0.47;;
45650;SDS011;31365;48.858;8.530;2023-04-24T01:42:38;1.47;;;0.70;;
45650;SDS011;31365;48.858;8.530;2023-04-24T01:45:09;2.30;;;0.50;;
45650;SDS011;31365;48.858;8.530;2023-04-24T01:47:39;0.70;;;0.50;;
45650;SDS011;31365;48.858;8.530;2023-04-24T01:50:08;1.03;;;0.80;;
45650;SDS011;31365;48.858;8.530;2023-04-24T01:52:38;1.80;;;0.70;;
45650;SDS011;31365;48.858;8.530;2023-04-24T01:55:10;1.20;;;0.57;;
45650;SDS011;31365;48.858;8.530;2023-04-24T01:57:38;1.30;;;0.63;;
45650;SDS011;31365;48.858;8.530;2023-04-24T02:00:07;1.33;;;0.80;;
45650;SDS011;31365;48.858;8.530;2023-04-24T02:02:39;2.57;;;0.77;;
45650;SDS011;31365;48.858;8.530;2023-04-24T02:05:12;2.80;;;0.70;;
45650;SDS011;31365;48.858;8.530;2023-04-24T02:07:40;2.27;;;1.00;;
45650;SDS011;31365;48.858;8.530;2023-04-24T02:10:09;0.87;;;0.70;;
45650;SDS011;31365;48.858;8.530;2023-04-24T02:12:41;2.23;;;0.43;;
45650;SDS011;31365;48.858;8.530;2023-04-24T02:15:10;1.00;;;0.50;;
45650;SDS011;31365;48.858;8.530;2023-04-24T02:17:39;1.43;;;0.60;;
45650;SDS011;31365;48.858;8.530;2023-04-24T02:20:07;1.70;;;0.90;;
45650;SDS011;31365;48.858;8.530;2023-04-24T02:22:37;1.77;;;0.83;;
45650;SDS011;31365;48.858;8.530;2023-04-24T02:25:05;0.90;;;0.53;;
45650;SDS011;31365;48.858;8.530;2023-04-24T02:27:36;1.90;;;1.17;;
45650;SDS011;31365;48.858;8.530;2023-04-24T02:30:05;1.20;;;1.00;;
45650;SDS011;31365;48.858;8.530;2023-04-24T02:32:34;0.53;;;0.50;;
45650;SDS011;31365;48.858;8.530;2023-04-24T02:35:02;2.03;;;0.83;;
45650;SDS011;31365;48.858;8.530;2023-04-24T02:37:32;2.07;;;0.87;;
45650;SDS011;31365;48.858;8.530;2023-04-24T02:40:00;1.47;;;0.63;;
45650;SDS011;31365;48.858;8.530;2023-04-24T02:42:29;2.47;;;0.77;;
45650;SDS011;31365;48.858;8.530;2023-04-24T02:44:58;3.03;;;0.90;;
45650;SDS011;31365;48.858;8.530;2023-04-24T02:47:26;0.87;;;0.73;;
45650;SDS011;31365;48.858;8.530;2023-04-24T02:49:55;1.43;;;0.50;;
45650;SDS011;31365;48.858;8.530;2023-04-24T02:52:23;1.13;;;0.67;;
45650;SDS011;31365;48.858;8.530;2023-04-24T02:54:51;1.50;;;1.00;;
45650;SDS011;31365;48.858;8.530;2023-04-24T02:57:20;1.80;;;0.50;;
45650;SDS011;31365;48.858;8.530;2023-04-24T02:59:48;1.90;;;0.50;;
45650;SDS011;31365;48.858;8.530;2023-04-24T03:02:18;1.77;;;0.60;;
45650;SDS011;31365;48.858;8.530;2023-04-24T03:04:47;0.77;;;0.70;;
45650;SDS011;31365;48.858;8.530;2023-04-24T03:07:15;1.40;;;0.60;;
45650;SDS011;31365;48.858;8.530;2023-04-24T03:09:47;1.70;;;0.67;;
45650;SDS011;31365;48.858;8.530;2023-04-24T03:12:15;1.97;;;0.53;;
45650;SDS011;31365;48.858;8.530;2023-04-24T03:14:44;0.90;;;0.53;;
45650;SDS011;31365;48.858;8.530;2023-04-24T03:17:12;2.50;;;0.73;;
45650;SDS011;31365;48.858;8.530;2023-04-24T03:19:42;3.23;;;0.77;;
45650;SDS011;31365;48.858;8.530;2023-04-24T03:22:11;2.20;;;1.07;;
45650;SDS011;31365;48.858;8.530;2023-04-24T03:24:42;3.20;;;0.70;;
45650;SDS011;31365;48.858;8.530;2023-04-24T03:27:13;2.33;;;0.97;;
45650;SDS011;31365;48.858;8.530;2023-04-24T03:30:01;1.17;;;0.70;;
45650;SDS011;31365;48.858;8.530;2023-04-24T03:32:43;2.57;;;0.97;;
45650;SDS011;31365;48.858;8.530;2023-04-24T03:35:15;1.33;;;0.80;;
45650;SDS011;31365;48.858;8.530;2023-04-24T03:37:44;2.03;;;0.73;;
45650;SDS011;31365;48.858;8.530;2023-04-24T03:40:32;1.10;;;1.00;;
45650;SDS011;31365;48.858;8.530;2023-04-24T03:43:03;2.00;;;1.00;;
45650;SDS011;31365;48.858;8.530;2023-04-24T03:45:32;1.00;;;0.70;;
45650;SDS011;31365;48.858;8.530;2023-04-24T03:48:00;1.27;;;0.80;;
45650;SDS011;31365;48.858;8.530;2023-04-24T03:50:30;0.90;;;0.90;;
45650;SDS011;31365;48.858;8.530;2023-04-24T03:52:59;0.80;;;0.80;;
45650;SDS011;31365;48.858;8.530;2023-04-24T03:55:34;0.83;;;0.77;;
45650;SDS011;31365;48.858;8.530;2023-04-24T03:58:02;0.97;;;0.77;;
45650;SDS011;31365;48.858;8.530;2023-04-24T04:00:31;2.17;;;1.30;;
45650;SDS011;31365;48.858;8.530;2023-04-24T04:03:20;0.80;;;0.80;;
45650;SDS011;31365;48.858;8.530;2023-04-24T04:05:50;3.03;;;1.20;;
45650;SDS011;31365;48.858;8.530;2023-04-24T04:08:19;3.63;;;1.43;;
45650;SDS011;31365;48.858;8.530;2023-04-24T04:10:48;2.90;;;2.60;;
45650;SDS011;31365;48.858;8.530;2023-04-24T04:13:17;1.63;;;0.80;;
45650;SDS011;31365;48.858;8.530;2023-04-24T04:15:45;1.13;;;1.03;;
45650;SDS011;31365;48.858;8.530;2023-04-24T04:18:14;1.40;;;0.90;;
45650;SDS011;31365;48.858;8.530;2023-04-24T04:20:43;2.40;;;1.20;;
45650;SDS011;31365;48.858;8.530;2023-04-24T04:23:14;1.53;;;0.97;;
45650;SDS011;31365;48.858;8.530;2023-04-24T04:25:55;1.50;;;1.17;;
45650;SDS011;31365;48.858;8.530;2023-04-24T04:28:34;1.70;;;1.30;;
45650;SDS011;31365;48.858;8.530;2023-04-24T04:31:04;1.17;;;1.07;;
45650;SDS011;31365;48.858;8.530;2023-04-24T04:33:34;1.97;;;1.27;;
45650;SDS011;31365;48.858;8.530;2023-04-24T04:36:05;1.10;;;1.00;;
45650;SDS011;31365;48.858;8.530;2023-04-24T04:38:40;1.37;;;1.17;;
45650;SDS011;31365;48.858;8.530;2023-04-24T04:41:27;2.03;;;1.30;;
45650;SDS011;31365;48.858;8.530;2023-04-24T04:43:56;1.77;;;1.30;;
45650;SDS011;31365;48.858;8.530;2023-04-24T04:46:25;1.60;;;1.40;;
45650;SDS011;31365;48.858;8.530;2023-04-24T04:49:02;1.33;;;1.10;;
45650;SDS011;31365;48.858;8.530;2023-04-24T04:51:30;1.93;;;1.30;;
45650;SDS011;31365;48.858;8.530;2023-04-24T04:54:02;1.40;;;1.30;;
45650;SDS011;31365;48.858;8.530;2023-04-24T04:56:30;2.10;;;1.43;;
45650;SDS011;31365;48.858;8.530;2023-04-24T04:58:59;1.40;;;1.27;;
45650;SDS011;31365;48.858;8.530;2023-04-24T05:01:28;1.60;;;1.50;;
45650;SDS011;31365;48.858;8.530;2023-04-24T05:03:57;1.90;;;1.70;;
45650;SDS011;31365;48.858;8.530;2023-04-24T05:06:25;4.57;;;1.67;;
45650;SDS011;31365;48.858;8.530;2023-04-24T05:08:54;1.70;;;1.60;;
45650;SDS011;31365;48.858;8.530;2023-04-24T05:11:49;1.90;;;1.70;;
45650;SDS011;31365;48.858;8.530;2023-04-24T05:14:17;2.53;;;1.93;;
45650;SDS011;31365;48.858;8.530;2023-04-24T05:16:45;1.30;;;1.20;;
45650;SDS011;31365;48.858;8.530;2023-04-24T05:19:15;2.20;;;2.00;;
45650;SDS011;31365;48.858;8.530;2023-04-24T05:21:44;1.70;;;1.60;;
45650;SDS011;31365;48.858;8.530;2023-04-24T05:24:14;2.17;;;1.97;;
45650;SDS011;31365;48.858;8.530;2023-04-24T05:26:49;2.33;;;2.10;;
45650;SDS011;31365;48.858;8.530;2023-04-24T05:29:22;2.03;;;1.73;;
45650;SDS011;31365;48.858;8.530;2023-04-24T05:31:53;2.07;;;1.43;;
45650;SDS011;31365;48.858;8.530;2023-04-24T05:34:22;3.87;;;2.10;;
45650;SDS011;31365;48.858;8.530;2023-04-24T05:36:53;7.00;;;4.13;;
45650;SDS011;31365;48.858;8.530;2023-04-24T05:39:22;3.13;;;2.30;;
45650;SDS011;31365;48.858;8.530;2023-04-24T05:41:53;4.60;;;1.77;;
45650;SDS011;31365;48.858;8.530;2023-04-24T05:44:24;2.03;;;1.40;;
45650;SDS011;31365;48.858;8.530;2023-04-24T05:46:52;2.17;;;1.40;;
45650;SDS011;31365;48.858;8.530;2023-04-24T05:49:22;1.20;;;1.10;;
45650;SDS011;31365;48.858;8.530;2023-04-24T05:51:50;1.53;;;1.43;;
45650;SDS011;31365;48.858;8.530;2023-04-24T05:54:19;1.33;;;1.17;;
45650;SDS011;31365;48.858;8.530;2023-04-24T05:56:48;1.60;;;1.50;;
45650;SDS011;31365;48.858;8.530;2023-04-24T05:59:33;2.60;;;1.50;;
45650;SDS011;31365;48.858;8.530;2023-04-24T06:02:01;2.23;;;1.80;;
45650;SDS011;31365;48.858;8.530;2023-04-24T06:04:31;1.87;;;1.70;;
45650;SDS011;31365;48.858;8.530;2023-04-24T06:07:00;2.70;;;1.80;;
45650;SDS011;31365;48.858;8.530;2023-04-24T06:09:29;2.23;;;1.90;;
45650;SDS011;31365;48.858;8.530;2023-04-24T06:11:57;2.20;;;1.87;;
45650;SDS011;31365;48.858;8.530;2023-04-24T06:14:36;3.13;;;2.43;;
45650;SDS011;31365;48.858;8.530;2023-04-24T06:17:17;4.40;;;1.90;;
45650;SDS011;31365;48.858;8.530;2023-04-24T06:19:47;2.57;;;2.00;;
45650;SDS011;31365;48.858;8.530;2023-04-24T06:22:16;2.13;;;1.93;;
45650;SDS011;31365;48.858;8.530;2023-04-24T06:24:44;2.60;;;2.00;;
45650;SDS011;31365;48.858;8.530;2023-04-24T06:27:13;2.50;;;2.30;;
45650;SDS011;31365;48.858;8.530;2023-04-24T06:29:43;2.83;;;1.90;;
45650;SDS011;31365;48.858;8.530;2023-04-24T06:32:11;3.20;;;1.80;;
45650;SDS011;31365;48.858;8.530;2023-04-24T06:34:39;4.23;;;1.50;;
45650;SDS011;31365;48.858;8.530;2023-04-24T06:37:08;2.47;;;1.90;;
45650;SDS011;31365;48.858;8.530;2023-04-24T06:39:36;2.10;;;1.90;;
45650;SDS011;31365;48.858;8.530;2023-04-24T06:42:05;2.97;;;2.07;;
45650;SDS011;31365;48.858;8.530;2023-04-24T06:44:34;4.17;;;2.43;;
45650;SDS011;31365;48.858;8.530;2023-04-24T06:47:08;2.67;;;2.47;;
45650;SDS011;31365;48.858;8.530;2023-04-24T06:49:40;3.27;;;1.70;;
45650;SDS011;31365;48.858;8.530;2023-04-24T06:52:09;1.90;;;1.50;;
45650;SDS011;31365;48.858;8.530;2023-04-24T06:54:37;1.97;;;1.77;;
45650;SDS011;31365;48.858;8.530;2023-04-24T06:57:05;1.17;;;1.13;;
45650;SDS011;31365;48.858;8.530;2023-04-24T06:59:34;3.40;;;1.93;;
45650;SDS011;31365;48.858;8.530;2023-04-24T07:02:02;3.00;;;2.20;;
45650;SDS011;31365;48.858;8.530;2023-04-24T07:04:32;4.77;;;3.53;;
45650;SDS011;31365;48.858;8.530;2023-04-24T07:07:00;3.70;;;1.93;;
45650;SDS011;31365;48.858;8.530;2023-04-24T07:09:29;5.20;;;3.53;;
45650;SDS011;31365;48.858;8.530;2023-04-24T07:11:58;2.20;;;2.00;;
45650;SDS011;31365;48.858;8.530;2023-04-24T07:14:27;3.23;;;2.60;;
45650;SDS011;31365;48.858;8.530;2023-04-24T07:16:55;1.93;;;1.23;;
45650;SDS011;31365;48.858;8.530;2023-04-24T07:19:23;6.20;;;5.50;;
45650;SDS011;31365;48.858;8.530;2023-04-24T07:21:53;2.30;;;2.03;;
45650;SDS011;31365;48.858;8.530;2023-04-24T07:24:21;4.53;;;3.83;;
45650;SDS011;31365;48.858;8.530;2023-04-24T07:26:52;2.77;;;1.80;;
45650;SDS011;31365;48.858;8.530;2023-04-24T07:29:21;1.50;;;1.40;;
45650;SDS011;31365;48.858;8.530;2023-04-24T07:31:49;7.10;;;2.40;;
45650;SDS011;31365;48.858;8.530;2023-04-24T07:34:17;2.10;;;1.90;;
45650;SDS011;31365;48.858;8.530;2023-04-24T07:36:46;2.60;;;1.97;;
45650;SDS011;31365;48.858;8.530;2023-04-24T07:39:15;3.97;;;2.10;;
45650;SDS011;31365;48.858;8.530;2023-04-24T07:41:45;3.07;;;1.70;;
45650;SDS011;31365;48.858;8.530;2023-04-24T07:44:13;3.30;;;2.10;;
45650;SDS011;31365;48.858;8.530;2023-04-24T07:46:41;2.97;;;2.00;;
45650;SDS011;31365;48.858;8.530;2023-04-24T07:49:10;3.30;;;2.37;;
45650;SDS011;31365;48.858;8.530;2023-04-24T07:51:40;1.97;;;1.70;;
45650;SDS011;31365;48.858;8.530;2023-04-24T07:54:08;4.37;;;2.00;;
45650;SDS011;31365;48.858;8.530;2023-04-24T07:56:38;3.83;;;2.67;;
45650;SDS011;31365;48.858;8.530;2023-04-24T07:59:07;8.73;;;4.97;;
45650;SDS011;31365;48.858;8.530;2023-04-24T08:01:36;3.33;;;2.77;;
45650;SDS011;31365;48.858;8.530;2023-04-24T08:04:05;2.63;;;1.37;;
45650;SDS011;31365;48.858;8.530;2023-04-24T08:06:33;3.30;;;2.20;;
45650;SDS011;31365;48.858;8.530;2023-04-24T08:09:01;5.43;;;4.90;;
45650;SDS011;31365;48.858;8.530;2023-04-24T08:11:30;4.17;;;2.87;;
45650;SDS011;31365;48.858;8.530;2023-04-24T08:14:00;4.67;;;3.57;;
45650;SDS011;31365;48.858;8.530;2023-04-24T08:16:28;4.83;;;3.40;;
45650;SDS011;31365;48.858;8.530;2023-04-24T08:18:57;2.43;;;2.10;;
45650;SDS011;31365;48.858;8.530;2023-04-24T08:21:25;1.70;;;1.60;;
45650;SDS011;31365;48.858;8.530;2023-04-24T08:23:53;4.53;;;3.27;;
45650;SDS011;31365;48.858;8.530;2023-04-24T08:26:21;1.97;;;1.57;;
45650;SDS011;31365;48.858;8.530;2023-04-24T08:28:51;4.03;;;1.70;;
45650;SDS011;31365;48.858;8.530;2023-04-24T08:31:20;2.93;;;2.30;;
45650;SDS011;31365;48.858;8.530;2023-04-24T08:33:49;3.07;;;2.10;;
45650;SDS011;31365;48.858;8.530;2023-04-24T08:36:17;4.37;;;3.70;;
45650;SDS011;31365;48.858;8.530;2023-04-24T08:38:45;2.90;;;2.03;;
45650;SDS011;31365;48.858;8.530;2023-04-24T08:41:14;0.80;;;0.80;;
45650;SDS011;31365;48.858;8.530;2023-04-24T08:43:43;2.43;;;1.30;;
45650;SDS011;31365;48.858;8.530;2023-04-24T08:46:13;2.20;;;1.50;;
45650;SDS011;31365;48.858;8.530;2023-04-24T08:48:45;1.77;;;1.10;;
45650;SDS011;31365;48.858;8.530;2023-04-24T08:51:14;2.60;;;1.83;;
45650;SDS011;31365;48.858;8.530;2023-04-24T08:53:44;3.67;;;2.37;;
45650;SDS011;31365;48.858;8.530;2023-04-24T08:56:14;2.73;;;2.20;;
45650;SDS011;31365;48.858;8.530;2023-04-24T08:58:43;1.90;;;1.37;;
45650;SDS011;31365;48.858;8.530;2023-04-24T09:01:12;1.53;;;1.23;;
45650;SDS011;31365;48.858;8.530;2023-04-24T09:03:40;1.77;;;1.00;;
45650;SDS011;31365;48.858;8.530;2023-04-24T09:06:10;1.63;;;1.23;;
45650;SDS011;31365;48.858;8.530;2023-04-24T09:08:39;4.80;;;1.50;;
45650;SDS011;31365;48.858;8.530;2023-04-24T09:11:10;1.90;;;1.20;;
45650;SDS011;31365;48.858;8.530;2023-04-24T09:13:39;2.40;;;1.20;;
45650;SDS011;31365;48.858;8.530;2023-04-24T09:16:08;1.97;;;1.20;;
45650;SDS011;31365;48.858;8.530;2023-04-24T09:18:36;1.70;;;1.10;;
45650;SDS011;31365;48.858;8.530;2023-04-24T09:21:06;2.60;;;0.97;;
45650;SDS011;31365;48.858;8.530;2023-04-24T09:23:37;1.50;;;1.33;;
45650;SDS011;31365;48.858;8.530;2023-04-24T09:26:06;1.43;;;1.13;;
45650;SDS011;31365;48.858;8.530;2023-04-24T09:28:37;0.90;;;0.90;;
45650;SDS011;31365;48.858;8.530;2023-04-24T09:31:09;1.60;;;1.10;;
45650;SDS011;31365;48.858;8.530;2023-04-24T09:33:47;3.13;;;1.30;;
45650;SDS011;31365;48.858;8.530;2023-04-24T09:36:27;1.13;;;0.90;;
45650;SDS011;31365;48.858;8.530;2023-04-24T09:39:00;3.50;;;1.47;;
45650;SDS011;31365;48.858;8.530;2023-04-24T09:41:31;5.23;;;1.40;;
45650;SDS011;31365;48.858;8.530;2023-04-24T09:44:10;3.30;;;1.87;;
45650;SDS011;31365;48.858;8.530;2023-04-24T09:46:40;3.13;;;1.53;;
45650;SDS011;31365;48.858;8.530;2023-04-24T09:49:10;1.90;;;1.57;;
45650;SDS011;31365;48.858;8.530;2023-04-24T09:51:41;2.20;;;1.17;;
45650;SDS011;31365;48.858;8.530;2023-04-24T09:54:15;1.40;;;1.30;;
45650;SDS011;31365;48.858;8.530;2023-04-24T09:56:47;2.80;;;1.27;;
45650;SDS011;31365;48.858;8.530;2023-04-24T09:59:17;2.10;;;1.30;;
45650;SDS011;31365;48.858;8.530;2023-04-24T10:01:46;1.57;;;1.33;;
45650;SDS011;31365;48.858;8.530;2023-04-24T10:04:16;2.07;;;1.37;;
45650;SDS011;31365;48.858;8.530;2023-04-24T10:06:46;2.83;;;1.40;;
45650;SDS011;31365;48.858;8.530;2023-04-24T10:09:18;3.97;;;1.40;;
45650;SDS011;31365;48.858;8.530;2023-04-24T10:11:48;2.63;;;1.13;;
45650;SDS011;31365;48.858;8.530;2023-04-24T10:14:19;3.17;;;2.70;;
45650;SDS011;31365;48.858;8.530;2023-04-24T10:16:49;3.03;;;2.50;;
45650;SDS011;31365;48.858;8.530;2023-04-24T10:19:20;3.37;;;1.60;;
45650;SDS011;31365;48.858;8.530;2023-04-24T10:21:51;1.20;;;1.10;;
45650;SDS011;31365;48.858;8.530;2023-04-24T10:24:22;1.50;;;1.30;;
45650;SDS011;31365;48.858;8.530;2023-04-24T10:26:50;3.20;;;1.40;;
45650;SDS011;31365;48.858;8.530;2023-04-24T10:29:19;1.60;;;1.23;;
45650;SDS011;31365;48.858;8.530;2023-04-24T10:31:48;2.77;;;1.20;;
45650;SDS011;31365;48.858;8.530;2023-04-24T10:34:17;1.60;;;1.50;;
45650;SDS011;31365;48.858;8.530;2023-04-24T10:36:50;1.30;;;1.20;;
45650;SDS011;31365;48.858;8.530;2023-04-24T10:39:24;3.93;;;2.67;;
45650;SDS011;31365;48.858;8.530;2023-04-24T10:41:54;1.50;;;1.40;;
45650;SDS011;31365;48.858;8.530;2023-04-24T10:44:23;2.27;;;1.90;;
45650;SDS011;31365;48.858;8.530;2023-04-24T10:46:54;2.30;;;1.87;;
45650;SDS011;31365;48.858;8.530;2023-04-24T10:49:27;2.30;;;1.20;;
45650;SDS011;31365;48.858;8.530;2023-04-24T10:51:59;2.20;;;1.63;;
45650;SDS011;31365;48.858;8.530;2023-04-24T10:54:35;3.80;;;1.67;;
45650;SDS011;31365;48.858;8.530;2023-04-24T10:57:27;1.57;;;1.13;;
45650;SDS011;31365;48.858;8.530;2023-04-24T11:00:18;2.67;;;1.60;;
45650;SDS011;31365;48.858;8.530;2023-04-24T12:36:04;2.90;;;1.90;;
45650;SDS011;31365;48.858;8.530;2023-04-24T12:38:33;2.50;;;2.30;;
45650;SDS011;31365;48.858;8.530;2023-04-24T12:41:07;2.13;;;1.90;;
45650;SDS011;31365;48.858;8.530;2023-04-24T12:43:36;4.60;;;2.27;;
45650;SDS011;31365;48.858;8.530;2023-04-24T12:46:05;2.33;;;1.90;;
45650;SDS011;31365;48.858;8.530;2023-04-24T12:48:33;2.57;;;1.77;;
45650;SDS011;31365;48.858;8.530;2023-04-24T12:51:02;2.03;;;1.83;;
45650;SDS011;31365;48.858;8.530;2023-04-24T12:53:32;2.77;;;1.43;;
45650;SDS011;31365;48.858;8.530;2023-04-24T12:56:00;3.30;;;2.50;;
45650;SDS011;31365;48.858;8.530;2023-04-24T12:58:28;2.43;;;2.07;;
45650;SDS011;31365;48.858;8.530;2023-04-24T13:00:56;1.63;;;1.53;;
45650;SDS011;31365;48.858;8.530;2023-04-24T13:03:24;2.40;;;2.20;;
45650;SDS011;31365;48.858;8.530;2023-04-24T13:05:53;2.80;;;1.73;;
45650;SDS011;31365;48.858;8.530;2023-04-24T13:08:21;2.05;;;1.63;;
45650;SDS011;31365;48.858;8.530;2023-04-24T13:10:50;2.65;;;2.42;;
45650;SDS011;31365;48.858;8.530;2023-04-24T13:13:20;2.97;;;1.75;;
45650;SDS011;31365;48.858;8.530;2023-04-24T13:15:48;2.90;;;1.58;;
45650;SDS011;31365;48.858;8.530;2023-04-24T13:18:16;2.10;;;1.80;;
45650;SDS011;31365;48.858;8.530;2023-04-24T13:20:44;1.45;;;1.35;;
45650;SDS011;31365;48.858;8.530;2023-04-24T13:23:14;2.47;;;2.03;;
45650;SDS011;31365;48.858;8.530;2023-04-24T13:25:42;4.83;;;3.53;;
45650;SDS011;31365;48.858;8.530;2023-04-24T13:28:12;3.53;;;2.17;;
45650;SDS011;31365;48.858;8.530;2023-04-24T13:30:41;2.33;;;2.07;;
45650;SDS011;31365;48.858;8.530;2023-04-24T13:33:32;1.87;;;1.77;;
45650;SDS011;31365;48.858;8.530;2023-04-24T13:36:01;1.90;;;1.80;;
45650;SDS011;31365;48.858;8.530;2023-04-24T13:38:29;2.20;;;1.73;;
45650;SDS011;31365;48.858;8.530;2023-04-24T13:40:57;1.60;;;1.50;;
45650;SDS011;31365;48.858;8.530;2023-04-24T13:43:27;2.20;;;2.00;;
45650;SDS011;31365;48.858;8.530;2023-04-24T13:45:56;1.93;;;1.70;;
45650;SDS011;31365;48.858;8.530;2023-04-24T13:48:25;2.57;;;1.70;;
45650;SDS011;31365;48.858;8.530;2023-04-24T13:50:53;2.92;;;1.95;;
45650;SDS011;31365;48.858;8.530;2023-04-24T13:53:22;1.88;;;1.63;;
45650;SDS011;31365;48.858;8.530;2023-04-24T13:55:50;3.05;;;2.03;;
45650;SDS011;31365;48.858;8.530;2023-04-24T13:58:18;1.85;;;1.58;;
45650;SDS011;31365;48.858;8.530;2023-04-24T14:00:48;2.45;;;1.70;;
45650;SDS011;31365;48.858;8.530;2023-04-24T14:03:16;1.60;;;1.50;;
45650;SDS011;31365;48.858;8.530;2023-04-24T14:05:45;2.33;;;1.73;;
45650;SDS011;31365;48.858;8.530;2023-04-24T14:08:13;2.08;;;1.70;;
45650;SDS011;31365;48.858;8.530;2023-04-24T14:10:42;2.80;;;1.92;;
45650;SDS011;31365;48.858;8.530;2023-04-24T14:13:10;2.58;;;1.73;;
45650;SDS011;31365;48.858;8.530;2023-04-24T14:15:39;2.28;;;1.40;;
45650;SDS011;31365;48.858;8.530;2023-04-24T14:18:09;3.70;;;1.95;;
45650;SDS011;31365;48.858;8.530;2023-04-24T14:20:37;3.03;;;1.83;;
45650;SDS011;31365;48.858;8.530;2023-04-24T14:23:06;2.30;;;1.77;;
45650;SDS011;31365;48.858;8.530;2023-04-24T14:25:35;2.88;;;1.73;;
45650;SDS011;31365;48.858;8.530;2023-04-24T14:28:05;2.03;;;1.50;;
45650;SDS011;31365;48.858;8.530;2023-04-24T14:30:34;3.05;;;2.00;;
45650;SDS011;31365;48.858;8.530;2023-04-24T14:33:04;1.42;;;1.33;;
45650;SDS011;31365;48.858;8.530;2023-04-24T14:35:35;1.80;;;1.35;;
45650;SDS011;31365;48.858;8.530;2023-04-24T14:38:04;1.83;;;1.38;;
45650;SDS011;31365;48.858;8.530;2023-04-24T14:40:32;1.42;;;1.30;;
45650;SDS011;31365;48.858;8.530;2023-04-24T14:43:21;1.83;;;1.15;;
45650;SDS011;31365;48.858;8.530;2023-04-24T14:45:49;1.40;;;1.10;;
45650;SDS011;31365;48.858;8.530;2023-04-24T14:48:17;1.70;;;1.42;;
45650;SDS011;31365;48.858;8.530;2023-04-24T14:50:48;3.35;;;1.27;;
45650;SDS011;31365;48.858;8.530;2023-04-24T14:53:16;3.45;;;1.67;;
45650;SDS011;31365;48.858;8.530;2023-04-24T14:55:45;1.67;;;1.58;;
45650;SDS011;31365;48.858;8.530;2023-04-24T14:58:13;3.00;;;2.38;;
45650;SDS011;31365;48.858;8.530;2023-04-24T15:00:42;2.30;;;1.98;;
45650;SDS011;31365;48.858;8.530;2023-04-24T15:03:10;3.45;;;3.15;;
45650;SDS011;31365;48.858;8.530;2023-04-24T15:05:39;1.90;;;1.70;;
45650;SDS011;31365;48.858;8.530;2023-04-24T15:08:08;3.30;;;1.50;;
45650;SDS011;31365;48.858;8.530;2023-04-24T15:10:36;3.38;;;1.55;;
45650;SDS011;31365;48.858;8.530;2023-04-24T15:13:05;1.92;;;1.70;;
45650;SDS011;31365;48.858;8.530;2023-04-24T15:15:33;2.15;;;1.80;;
45650;SDS011;31365;48.858;8.530;2023-04-24T15:18:01;2.25;;;1.45;;
45650;SDS011;31365;48.858;8.530;2023-04-24T15:20:30;5.50;;;2.25;;
45650;SDS011;31365;48.858;8.530;2023-04-24T15:22:58;4.38;;;2.55;;
45650;SDS011;31365;48.858;8.530;2023-04-24T15:25:29;1.67;;;1.57;;
45650;SDS011;31365;48.858;8.530;2023-04-24T15:27:58;3.10;;;2.40;;
45650;SDS011;31365;48.858;8.530;2023-04-24T15:30:27;1.83;;;1.70;;
45650;SDS011;31365;48.858;8.530;2023-04-24T15:32:57;2.13;;;1.83;;
45650;SDS011;31365;48.858;8.530;2023-04-24T15:35:27;3.43;;;1.93;;
45650;SDS011;31365;48.858;8.530;2023-04-24T15:37:56;2.63;;;2.07;;
45650;SDS011;31365;48.858;8.530;2023-04-24T15:40:24;2.20;;;2.00;;
45650;SDS011;31365;48.858;8.530;2023-04-24T15:42:54;2.50;;;2.30;;
45650;SDS011;31365;48.858;8.530;2023-04-24T15:45:22;2.10;;;1.87;;
45650;SDS011;31365;48.858;8.530;2023-04-24T15:47:50;4.13;;;2.37;;
45650;SDS011;31365;48.858;8.530;2023-04-24T15:50:18;3.07;;;1.70;;
45650;SDS011;31365;48.858;8.530;2023-04-24T15:52:48;4.10;;;1.80;;
45650;SDS011;31365;48.858;8.530;2023-04-24T15:55:16;1.53;;;1.43;;
45650;SDS011;31365;48.858;8.530;2023-04-24T15:57:45;1.70;;;1.50;;
45650;SDS011;31365;48.858;8.530;2023-04-24T16:00:15;2.03;;;1.83;;
45650;SDS011;31365;48.858;8.530;2023-04-24T16:02:45;3.70;;;1.77;;
45650;SDS011;31365;48.858;8.530;2023-04-24T16:05:14;1.70;;;1.60;;
45650;SDS011;31365;48.858;8.530;2023-04-24T16:07:42;2.63;;;1.50;;
45650;SDS011;31365;48.858;8.530;2023-04-24T16:10:11;1.70;;;1.37;;
45650;SDS011;31365;48.858;8.530;2023-04-24T16:12:39;2.27;;;1.70;;
45650;SDS011;31365;48.858;8.530;2023-04-24T16:15:08;1.53;;;1.37;;
45650;SDS011;31365;48.858;8.530;2023-04-24T16:17:39;2.27;;;1.90;;
45650;SDS011;31365;48.858;8.530;2023-04-24T16:20:07;1.00;;;0.90;;
45650;SDS011;31365;48.858;8.530;2023-04-24T16:22:37;1.50;;;1.40;;
45650;SDS011;31365;48.858;8.530;2023-04-24T16:25:05;1.27;;;1.10;;
45650;SDS011;31365;48.858;8.530;2023-04-24T16:27:36;1.60;;;1.30;;
45650;SDS011;31365;48.858;8.530;2023-04-24T16:30:04;2.67;;;2.10;;
45650;SDS011;31365;48.858;8.530;2023-04-24T16:32:34;1.10;;;1.00;;
45650;SDS011;31365;48.858;8.530;2023-04-24T16:35:04;2.93;;;2.40;;
45650;SDS011;31365;48.858;8.530;2023-04-24T16:37:33;1.57;;;1.20;;